createdAt,value
2023-02-06T00:01:31.682Z,4.22
2023-02-06T00:03:58.437Z,5.25
2023-02-06T00:06:25.223Z,4.15
2023-02-06T00:08:51.984Z,4.10
2023-02-06T00:11:18.923Z,3.92
2023-02-06T00:13:46.004Z,4.03
2023-02-06T00:16:20.641Z,3.92
2023-02-06T00:18:48.319Z,3.95
2023-02-06T00:21:15.085Z,3.40
2023-02-06T00:23:41.899Z,4.20
2023-02-06T00:26:09.265Z,4.82
2023-02-06T00:28:37.158Z,4.30
2023-02-06T00:31:08.100Z,4.78
2023-02-06T00:33:35.213Z,6.25
2023-02-06T00:36:03.023Z,7.03
2023-02-06T00:38:30.050Z,8.40
2023-02-06T00:40:59.080Z,8.35
2023-02-06T00:43:25.876Z,6.78
2023-02-06T00:45:53.624Z,7.63
2023-02-06T00:48:22.052Z,8.93
2023-02-06T00:50:49.760Z,9.45
2023-02-06T00:53:16.573Z,9.00
2023-02-06T00:55:43.442Z,9.43
2023-02-06T00:58:10.225Z,9.18
2023-02-06T01:00:36.979Z,6.75
2023-02-06T01:03:03.880Z,6.70
2023-02-06T01:05:30.677Z,6.22
2023-02-06T01:07:57.402Z,5.93
2023-02-06T01:10:25.192Z,6.85
2023-02-06T01:12:52.012Z,7.20
2023-02-06T01:15:18.788Z,7.07
2023-02-06T01:17:45.563Z,6.15
2023-02-06T01:20:12.972Z,5.82
2023-02-06T01:22:40.030Z,5.65
2023-02-06T01:25:07.071Z,5.30
2023-02-06T01:27:36.184Z,4.38
2023-02-06T01:30:03.920Z,4.18
2023-02-06T01:32:30.723Z,4.68
2023-02-06T01:34:57.484Z,3.63
2023-02-06T01:37:24.284Z,3.67
2023-02-06T01:39:51.104Z,3.92
2023-02-06T01:42:17.886Z,4.35
2023-02-06T01:44:45.240Z,4.85
2023-02-06T01:47:12.366Z,3.88
2023-02-06T01:49:44.827Z,4.13
2023-02-06T01:52:17.504Z,3.85
2023-02-06T01:54:46.894Z,4.55
2023-02-06T01:57:13.661Z,3.92
2023-02-06T01:59:41.785Z,3.60
2023-02-06T02:02:08.601Z,3.72
2023-02-06T02:04:35.408Z,3.53
2023-02-06T02:07:26.226Z,3.30
2023-02-06T02:09:53.393Z,3.72
2023-02-06T02:12:20.272Z,4.00
2023-02-06T02:14:47.997Z,4.47
2023-02-06T02:17:44.139Z,4.25
2023-02-06T02:20:20.025Z,4.13
2023-02-06T02:23:08.230Z,4.78
2023-02-06T02:26:05.784Z,4.55
2023-02-06T02:29:24.014Z,4.30
2023-02-06T02:32:23.078Z,5.15
2023-02-06T02:35:09.144Z,4.70
2023-02-06T02:37:55.871Z,4.90
2023-02-06T02:40:36.972Z,5.47
2023-02-06T02:43:32.595Z,4.80
2023-02-06T02:46:02.248Z,5.72
2023-02-06T02:48:30.788Z,6.78
2023-02-06T02:50:57.674Z,5.65
2023-02-06T02:53:24.642Z,6.53
2023-02-06T02:55:51.445Z,5.88
2023-02-06T02:58:20.980Z,6.07
2023-02-06T03:01:19.360Z,6.22
2023-02-06T03:03:46.399Z,7.20
2023-02-06T03:06:22.092Z,8.05
2023-02-06T03:09:05.566Z,8.23
2023-02-06T03:11:32.531Z,8.80
2023-02-06T03:14:17.196Z,8.35
2023-02-06T03:16:56.669Z,9.75
2023-02-06T03:19:26.505Z,9.10
2023-02-06T03:21:53.383Z,9.57
2023-02-06T03:24:23.142Z,9.55
2023-02-06T03:26:50.948Z,11.15
2023-02-06T03:29:17.788Z,9.80
2023-02-06T03:32:15.675Z,8.55
2023-02-06T03:34:46.622Z,7.38
2023-02-06T03:37:14.273Z,6.93
2023-02-06T03:39:41.123Z,7.30
2023-02-06T03:42:07.879Z,8.85
2023-02-06T03:44:36.359Z,9.15
2023-02-06T03:47:03.127Z,9.32
2023-02-06T03:49:30.517Z,8.90
2023-02-06T03:52:05.221Z,8.43
2023-02-06T03:54:32.420Z,8.27
2023-02-06T03:57:00.946Z,7.97
2023-02-06T03:59:27.736Z,7.93
2023-02-06T04:01:58.740Z,9.70
2023-02-06T04:04:30.653Z,9.63
2023-02-06T04:07:19.728Z,9.02
2023-02-06T04:09:46.559Z,8.60
2023-02-06T04:12:13.351Z,8.68
2023-02-06T04:14:40.118Z,9.02
2023-02-06T04:17:06.937Z,7.75
2023-02-06T04:19:33.959Z,8.38
2023-02-06T04:22:00.858Z,8.82
2023-02-06T04:24:29.316Z,8.15
2023-02-06T04:26:57.688Z,8.88
2023-02-06T04:29:24.440Z,8.63
2023-02-06T04:31:51.218Z,9.35
2023-02-06T04:34:17.977Z,8.73
2023-02-06T04:36:44.738Z,9.35
2023-02-06T04:39:11.475Z,9.88
2023-02-06T04:41:38.225Z,10.57
2023-02-06T04:44:05.157Z,10.70
2023-02-06T04:46:31.942Z,10.25
2023-02-06T04:48:58.669Z,9.48
2023-02-06T04:51:25.438Z,8.65
2023-02-06T04:53:52.201Z,8.38
2023-02-06T04:56:18.957Z,8.18
2023-02-06T04:58:45.750Z,7.95
2023-02-06T05:01:12.697Z,7.13
2023-02-06T05:03:39.449Z,8.77
2023-02-06T05:06:06.514Z,8.48
2023-02-06T05:08:33.293Z,8.18
2023-02-06T05:11:00.048Z,8.73
2023-02-06T05:13:26.870Z,8.15
2023-02-06T05:15:53.740Z,8.02
2023-02-06T05:18:20.522Z,7.57
2023-02-06T05:20:47.278Z,6.95
2023-02-06T05:23:14.061Z,5.65
2023-02-06T05:25:42.262Z,5.45
2023-02-06T05:28:09.883Z,5.00
2023-02-06T05:30:37.059Z,4.68
2023-02-06T05:33:03.900Z,5.45
2023-02-06T05:35:30.675Z,5.20
2023-02-06T05:37:57.860Z,5.30
2023-02-06T05:40:24.646Z,5.60
2023-02-06T05:42:51.424Z,5.40
2023-02-06T05:45:18.313Z,6.20
2023-02-06T05:47:45.052Z,6.38
2023-02-06T05:50:11.806Z,5.60
2023-02-06T05:52:38.572Z,6.15
2023-02-06T05:55:05.652Z,6.07
2023-02-06T05:57:32.460Z,5.22
2023-02-06T05:59:59.305Z,5.88
2023-02-06T06:02:26.205Z,5.85
2023-02-06T06:04:53.049Z,6.30
2023-02-06T06:07:19.875Z,7.03
2023-02-06T06:09:46.632Z,6.68
2023-02-06T06:12:13.385Z,9.90
2023-02-06T06:14:40.207Z,9.27
2023-02-06T06:17:07.159Z,7.13
2023-02-06T06:19:33.961Z,6.55
2023-02-06T06:22:00.746Z,6.03
2023-02-06T06:24:27.512Z,5.40
2023-02-06T06:26:54.521Z,6.47
2023-02-06T06:29:21.253Z,6.07
2023-02-06T06:31:48.055Z,6.60
2023-02-06T06:34:14.809Z,6.78
2023-02-06T06:36:41.547Z,6.88
2023-02-06T06:39:08.282Z,7.20
2023-02-06T06:41:35.059Z,6.70
2023-02-06T06:44:01.837Z,6.80
2023-02-06T06:46:28.801Z,6.30
2023-02-06T06:48:55.584Z,6.55
2023-02-06T06:51:22.388Z,6.55
2023-02-06T06:53:49.142Z,5.95
2023-02-06T06:56:16.067Z,6.28
2023-02-06T06:58:42.833Z,6.60
2023-02-06T07:01:09.770Z,6.40
2023-02-06T07:03:36.758Z,5.35
2023-02-06T07:06:04.594Z,6.05
2023-02-06T07:08:31.469Z,5.65
2023-02-06T07:10:58.368Z,5.72
2023-02-06T07:13:25.117Z,6.07
2023-02-06T07:15:51.944Z,6.40
2023-02-06T07:18:18.714Z,5.55
2023-02-06T07:20:45.517Z,5.90
2023-02-06T07:23:12.265Z,6.97
2023-02-06T07:25:39.063Z,6.95
2023-02-06T07:28:05.825Z,6.07
2023-02-06T07:30:32.678Z,5.70
2023-02-06T07:32:59.438Z,7.45
2023-02-06T07:35:26.227Z,7.25
2023-02-06T07:37:53.903Z,7.80
2023-02-06T07:40:20.701Z,7.90
2023-02-06T07:42:47.417Z,8.38
2023-02-06T07:47:47.412Z,6.45
2023-02-06T07:50:14.165Z,7.32
2023-02-06T07:52:40.914Z,7.82
2023-02-06T07:55:10.144Z,7.60
2023-02-06T07:57:36.895Z,7.43
2023-02-06T08:00:04.947Z,7.75
2023-02-06T08:02:38.898Z,8.15
2023-02-06T08:05:05.911Z,7.35
2023-02-06T08:07:32.681Z,7.57
2023-02-06T08:09:59.460Z,7.00
2023-02-06T08:12:26.628Z,6.97
2023-02-06T08:14:53.378Z,7.50
2023-02-06T08:17:21.229Z,7.15
2023-02-06T08:19:48.698Z,6.80
2023-02-06T08:22:15.482Z,6.53
2023-02-06T08:24:42.235Z,6.85
2023-02-06T08:27:09.057Z,8.95
2023-02-06T08:29:42.476Z,8.80
2023-02-06T08:32:09.963Z,10.35
2023-02-06T08:34:38.045Z,10.68
2023-02-06T08:37:04.815Z,12.38
2023-02-06T08:39:31.591Z,11.50
2023-02-06T08:41:58.336Z,12.27
2023-02-06T08:44:25.047Z,13.48
2023-02-06T08:46:58.870Z,12.85
2023-02-06T08:49:31.518Z,12.80
2023-02-06T08:51:58.259Z,12.15
2023-02-06T08:54:25.036Z,10.13
2023-02-06T08:56:52.724Z,12.75
2023-02-06T08:59:19.801Z,12.32
2023-02-06T09:01:46.810Z,12.10
2023-02-06T09:04:14.095Z,15.10
2023-02-06T09:06:42.375Z,13.75
2023-02-06T09:09:09.618Z,14.10
2023-02-06T09:11:36.557Z,13.57
2023-02-06T09:14:04.432Z,13.00
2023-02-06T09:16:33.535Z,13.75
2023-02-06T09:19:01.390Z,16.58
2023-02-06T09:21:30.046Z,16.48
2023-02-06T09:24:00.652Z,15.77
2023-02-06T09:26:57.102Z,16.27
2023-02-06T09:29:25.826Z,16.15
2023-02-06T09:31:52.595Z,14.27
2023-02-06T09:34:19.389Z,14.57
2023-02-06T09:36:46.449Z,14.38
2023-02-06T09:39:13.746Z,14.57
2023-02-06T09:41:45.688Z,16.52
2023-02-06T09:44:12.504Z,12.90
2023-02-06T09:46:49.240Z,13.23
2023-02-06T09:49:20.937Z,13.18
2023-02-06T09:52:22.831Z,12.40
2023-02-06T09:55:25.996Z,13.77
2023-02-06T09:57:58.894Z,15.10
2023-02-06T10:00:38.327Z,13.50
2023-02-06T10:03:26.301Z,13.35
2023-02-06T10:06:08.164Z,12.95
2023-02-06T10:08:37.262Z,12.90
2023-02-06T10:11:12.679Z,12.55
2023-02-06T10:13:51.903Z,12.45
2023-02-06T10:16:50.126Z,11.90
2023-02-06T10:19:26.118Z,10.75
2023-02-06T10:22:02.122Z,10.10
2023-02-06T10:25:00.018Z,11.05
2023-02-06T10:27:26.742Z,11.52
2023-02-06T10:29:53.559Z,11.10
2023-02-06T10:32:27.933Z,12.75
2023-02-06T10:35:06.212Z,12.93
2023-02-06T10:38:05.700Z,12.55
2023-02-06T10:40:38.271Z,11.45
2023-02-06T10:43:14.233Z,11.18
2023-02-06T10:45:50.660Z,11.65
2023-02-06T10:48:33.027Z,14.15
2023-02-06T10:51:27.055Z,11.75
2023-02-06T10:53:57.698Z,11.50
2023-02-06T10:56:52.089Z,12.35
2023-02-06T10:59:54.260Z,12.90
2023-02-06T11:02:23.162Z,10.40
2023-02-06T11:04:51.723Z,12.75
2023-02-06T11:07:40.580Z,12.70
2023-02-06T11:10:07.646Z,14.07
2023-02-06T11:12:37.378Z,14.10
2023-02-06T11:15:27.237Z,14.88
2023-02-06T11:17:54.150Z,14.43
2023-02-06T11:20:24.086Z,15.25
2023-02-06T11:22:53.303Z,15.85
2023-02-06T11:25:31.422Z,16.13
2023-02-06T11:27:58.498Z,12.88
2023-02-06T11:30:30.941Z,14.43
2023-02-06T11:33:19.510Z,13.37
2023-02-06T11:35:59.984Z,11.25
2023-02-06T11:38:30.391Z,12.43
2023-02-06T11:41:00.915Z,12.82
2023-02-06T11:43:28.788Z,12.60
2023-02-06T11:46:23.798Z,12.98
2023-02-06T11:48:56.924Z,13.50
2023-02-06T11:55:44.889Z,12.88
2023-02-06T11:58:14.370Z,13.68
2023-02-06T12:01:02.580Z,12.88
2023-02-06T12:03:44.184Z,11.90
2023-02-06T12:06:22.029Z,12.45
2023-02-06T12:08:49.625Z,10.43
2023-02-06T12:11:47.932Z,10.65
2023-02-06T12:14:22.055Z,12.98
2023-02-06T12:16:48.898Z,12.73
2023-02-06T12:20:09.644Z,12.95
2023-02-06T12:22:40.435Z,13.45
2023-02-06T12:25:28.902Z,13.88
2023-02-06T12:27:58.314Z,12.75
2023-02-06T12:30:28.022Z,11.50
2023-02-06T12:33:07.335Z,11.65
2023-02-06T12:35:35.933Z,13.15
2023-02-06T12:38:16.795Z,13.15
2023-02-06T12:41:02.780Z,12.23
2023-02-06T12:43:29.681Z,13.07
2023-02-06T12:46:17.393Z,12.23
2023-02-06T12:49:12.595Z,11.45
2023-02-06T12:52:02.760Z,13.00
2023-02-06T12:54:33.290Z,10.98
2023-02-06T12:57:05.962Z,11.23
2023-02-06T12:59:57.606Z,11.13
2023-02-06T13:02:40.279Z,10.95
2023-02-06T13:05:15.778Z,11.15
2023-02-06T13:07:49.205Z,11.20
2023-02-06T13:10:18.999Z,13.10
2023-02-06T13:12:53.071Z,13.13
2023-02-06T13:15:21.784Z,12.90
2023-02-06T13:17:50.570Z,12.60
2023-02-06T13:20:19.127Z,14.43
2023-02-06T13:23:16.536Z,14.63
2023-02-06T13:25:47.053Z,14.98
2023-02-06T13:28:23.031Z,15.45
2023-02-06T13:30:59.231Z,21.05
2023-02-06T13:33:26.805Z,14.68
2023-02-06T13:36:05.520Z,14.57
2023-02-06T13:38:35.336Z,13.80
2023-02-06T13:41:16.978Z,14.63
2023-02-06T13:43:58.563Z,14.32
2023-02-06T13:47:10.689Z,13.40
2023-02-06T13:49:51.448Z,14.07
2023-02-06T13:52:26.933Z,11.43
2023-02-06T13:55:11.433Z,11.63
2023-02-06T13:58:00.126Z,11.38
2023-02-06T14:00:30.181Z,10.73
2023-02-06T14:03:13.310Z,11.40
2023-02-06T14:06:10.309Z,9.75
2023-02-06T14:08:49.114Z,9.98
2023-02-06T14:11:50.005Z,9.52
2023-02-06T14:14:45.281Z,80.50
2023-02-06T14:17:24.440Z,10.70
2023-02-06T14:20:12.221Z,9.45
2023-02-06T14:22:44.876Z,9.93
2023-02-06T14:25:18.363Z,8.93
2023-02-06T14:27:54.121Z,9.48
2023-02-06T14:30:56.454Z,9.73
2023-02-06T14:33:42.030Z,9.10
2023-02-06T14:36:12.565Z,9.57
2023-02-06T14:38:43.652Z,8.80
2023-02-06T14:41:10.518Z,8.20
2023-02-06T14:43:39.259Z,9.68
2023-02-06T14:46:08.684Z,9.68
2023-02-06T14:48:53.191Z,9.75
2023-02-06T14:51:36.088Z,9.32
2023-02-06T14:54:07.849Z,9.32
2023-02-06T14:56:38.970Z,8.80
2023-02-06T14:59:23.730Z,8.77
2023-02-06T15:01:53.597Z,9.23
2023-02-06T15:08:50.498Z,8.13
2023-02-06T15:11:20.843Z,8.55
2023-02-06T15:13:52.402Z,8.27
2023-02-06T15:16:19.207Z,9.27
2023-02-06T15:18:46.126Z,8.77
2023-02-06T15:21:17.202Z,10.13
2023-02-06T15:24:09.208Z,9.27
2023-02-06T15:27:03.016Z,7.07
2023-02-06T15:29:29.818Z,8.80
2023-02-06T15:32:07.918Z,8.13
2023-02-06T15:34:34.766Z,8.13
2023-02-06T15:37:01.895Z,8.85
2023-02-06T15:39:28.727Z,10.10
2023-02-06T15:41:55.533Z,9.85
2023-02-06T15:44:22.280Z,8.85
2023-02-06T15:46:49.992Z,9.27
2023-02-06T15:49:19.216Z,9.45
2023-02-06T15:51:53.981Z,9.60
2023-02-06T15:54:22.394Z,8.48
2023-02-06T15:57:04.747Z,8.88
2023-02-06T15:59:34.060Z,8.38
2023-02-06T16:02:00.936Z,9.02
2023-02-06T16:04:36.932Z,8.68
2023-02-06T16:07:09.608Z,9.43
2023-02-06T16:09:43.361Z,10.25
2023-02-06T16:12:10.233Z,10.20
2023-02-06T16:14:39.011Z,8.63
2023-02-06T16:17:15.155Z,8.50
2023-02-06T16:19:56.009Z,8.80
2023-02-06T16:22:33.930Z,9.80
2023-02-06T16:25:19.354Z,8.30
2023-02-06T16:27:46.405Z,7.68
2023-02-06T16:30:32.652Z,8.10
2023-02-06T16:33:00.949Z,8.25
2023-02-06T16:35:27.703Z,7.65
2023-02-06T16:37:54.556Z,8.48
2023-02-06T16:40:21.432Z,7.90
2023-02-06T16:42:48.299Z,8.32
2023-02-06T16:45:18.465Z,7.43
2023-02-06T16:47:45.632Z,8.27
2023-02-06T16:50:12.790Z,8.82
2023-02-06T16:52:41.535Z,6.75
2023-02-06T16:55:16.775Z,6.38
2023-02-06T16:57:44.957Z,7.68
2023-02-06T17:00:20.867Z,7.40
2023-02-06T17:02:48.079Z,8.20
2023-02-06T17:05:15.090Z,8.77
2023-02-06T17:07:41.890Z,7.88
2023-02-06T17:10:09.410Z,8.02
2023-02-06T17:12:36.386Z,7.47
2023-02-06T17:15:03.234Z,6.97
2023-02-06T17:17:29.999Z,7.40
2023-02-06T17:19:56.765Z,7.50
2023-02-06T17:22:23.598Z,7.00
2023-02-06T17:24:50.397Z,7.00
2023-02-06T17:27:20.523Z,7.65
2023-02-06T17:29:47.876Z,8.38
2023-02-06T17:32:16.237Z,8.15
2023-02-06T17:34:43.189Z,7.90
2023-02-06T17:37:12.399Z,7.55
2023-02-06T17:39:39.185Z,7.13
2023-02-06T17:42:06.114Z,8.68
2023-02-06T17:44:32.897Z,7.00
2023-02-06T17:46:59.671Z,7.95
2023-02-06T17:49:26.530Z,6.30
2023-02-06T17:51:54.505Z,7.13
2023-02-06T17:54:21.300Z,7.70
2023-02-06T17:56:48.134Z,6.28
2023-02-06T17:59:14.954Z,6.95
2023-02-06T18:01:42.689Z,6.80
2023-02-06T18:08:37.008Z,6.85
2023-02-06T18:11:15.367Z,7.00
2023-02-06T18:13:42.634Z,7.30
2023-02-06T18:16:17.465Z,6.50
2023-02-06T18:18:44.450Z,6.60
2023-02-06T18:21:11.407Z,6.60
2023-02-06T18:23:38.222Z,5.53
2023-02-06T18:26:06.877Z,5.97
2023-02-06T18:28:34.033Z,6.53
2023-02-06T18:31:02.203Z,6.47
2023-02-06T18:33:30.033Z,6.53
2023-02-06T18:35:57.032Z,6.65
2023-02-06T18:38:24.094Z,5.63
2023-02-06T18:40:50.886Z,5.65
2023-02-06T18:43:17.658Z,5.32
2023-02-06T18:45:44.507Z,5.95
2023-02-06T18:48:12.625Z,5.15
2023-02-06T18:50:41.447Z,5.53
2023-02-06T18:53:08.522Z,5.88
2023-02-06T18:55:37.138Z,5.38
2023-02-06T18:58:05.066Z,5.32
2023-02-06T19:00:34.479Z,5.22
2023-02-06T19:03:01.811Z,5.35
2023-02-06T19:05:30.741Z,5.80
2023-02-06T19:07:57.569Z,5.22
2023-02-06T19:10:25.815Z,4.65
2023-02-06T19:12:52.590Z,5.00
2023-02-06T19:15:19.409Z,5.30
2023-02-06T19:17:46.241Z,5.07
2023-02-06T19:20:13.042Z,9.82
2023-02-06T19:22:39.819Z,6.00
2023-02-06T19:25:10.570Z,5.00
2023-02-06T19:27:38.494Z,5.28
2023-02-06T19:30:07.662Z,4.35
2023-02-06T19:32:34.758Z,6.00
2023-02-06T19:35:01.722Z,5.40
2023-02-06T19:37:28.562Z,9.20
2023-02-06T19:39:55.430Z,7.05
2023-02-06T19:42:22.321Z,5.53
2023-02-06T19:44:54.344Z,4.22
2023-02-06T19:47:21.480Z,4.45
2023-02-06T19:49:52.383Z,3.85
2023-02-06T19:52:19.389Z,3.35
2023-02-06T19:54:47.741Z,2.92
2023-02-06T19:57:15.023Z,3.13
2023-02-06T19:59:42.390Z,3.30
2023-02-06T20:02:10.135Z,2.90
2023-02-06T20:04:37.792Z,3.40
2023-02-06T20:07:04.556Z,3.40
2023-02-06T20:09:31.739Z,3.45
2023-02-06T20:11:58.709Z,3.58
2023-02-06T20:14:25.678Z,3.72
2023-02-06T20:16:52.754Z,3.25
2023-02-06T20:19:25.848Z,3.17
2023-02-06T20:21:54.598Z,3.65
2023-02-06T20:24:23.130Z,3.15
2023-02-06T20:26:53.986Z,2.45
2023-02-06T20:29:25.252Z,2.95
2023-02-06T20:31:52.278Z,2.17
2023-02-06T20:34:19.420Z,2.88
2023-02-06T20:36:47.387Z,3.08
2023-02-06T20:39:14.773Z,2.50
2023-02-06T20:41:41.854Z,2.47
2023-02-06T20:44:09.567Z,2.30
2023-02-06T20:46:36.515Z,2.08
2023-02-06T20:49:06.008Z,2.55
2023-02-06T20:51:35.170Z,2.10
2023-02-06T20:54:02.247Z,2.67
2023-02-06T20:56:29.380Z,2.20
2023-02-06T20:58:57.891Z,2.00
2023-02-06T21:01:26.134Z,2.30
2023-02-06T21:03:55.585Z,2.08
2023-02-06T21:06:22.687Z,2.08
2023-02-06T21:08:57.306Z,2.13
2023-02-06T21:11:24.254Z,2.00
2023-02-06T21:13:51.093Z,1.95
2023-02-06T21:16:17.964Z,1.77
2023-02-06T21:18:44.781Z,1.88
2023-02-06T21:21:13.109Z,2.10
2023-02-06T21:23:41.185Z,2.10
2023-02-06T21:26:08.631Z,2.10
2023-02-06T21:28:35.669Z,1.92
2023-02-06T21:31:07.383Z,2.95
2023-02-06T21:33:34.641Z,1.90
2023-02-06T21:36:02.361Z,1.80
2023-02-06T21:38:29.621Z,1.83
2023-02-06T21:40:56.408Z,1.38
2023-02-06T21:43:23.208Z,1.73
2023-02-06T21:45:50.089Z,1.80
2023-02-06T21:48:16.888Z,2.00
2023-02-06T21:50:44.961Z,1.73
2023-02-06T21:53:11.898Z,2.10
2023-02-06T21:55:45.240Z,1.60
2023-02-06T21:58:14.611Z,2.22
2023-02-06T22:00:44.240Z,1.80
2023-02-06T22:03:11.459Z,1.88
2023-02-06T22:05:38.782Z,1.80
2023-02-06T22:08:05.963Z,1.95
2023-02-06T22:10:35.407Z,1.65
2023-02-06T22:13:02.627Z,1.58
2023-02-06T22:15:29.504Z,1.77
2023-02-06T22:17:56.299Z,1.50
2023-02-06T22:20:23.051Z,1.85
2023-02-06T22:22:49.836Z,1.48
2023-02-06T22:25:16.642Z,1.73
2023-02-06T22:27:43.977Z,1.50
2023-02-06T22:30:11.474Z,1.58
2023-02-06T22:32:38.770Z,1.73
2023-02-06T22:35:06.130Z,1.50
2023-02-06T22:37:33.115Z,1.58
2023-02-06T22:39:59.877Z,1.23
2023-02-06T22:42:26.744Z,1.52
2023-02-06T22:44:53.558Z,1.90
2023-02-06T22:47:20.362Z,2.05
2023-02-06T22:49:47.255Z,1.67
2023-02-06T22:52:32.755Z,1.77
2023-02-06T22:54:59.481Z,1.80
2023-02-06T22:57:27.607Z,1.50
2023-02-06T22:59:54.337Z,1.67
2023-02-06T23:02:21.182Z,2.10
2023-02-06T23:04:48.057Z,1.80
2023-02-06T23:07:15.126Z,1.75
2023-02-06T23:09:41.908Z,1.85
2023-02-06T23:12:11.333Z,1.90
2023-02-06T23:14:38.078Z,1.90
2023-02-06T23:17:04.845Z,1.83
2023-02-06T23:19:31.820Z,2.08
2023-02-06T23:21:58.577Z,1.83
2023-02-06T23:24:25.371Z,2.15
2023-02-06T23:26:53.249Z,2.50
2023-02-06T23:29:21.334Z,2.25
2023-02-06T23:31:48.579Z,2.17
2023-02-06T23:34:16.084Z,2.40
2023-02-06T23:36:43.176Z,1.58
2023-02-06T23:39:11.732Z,1.80
2023-02-06T23:41:38.579Z,2.80
2023-02-06T23:44:06.160Z,3.00
2023-02-06T23:46:34.582Z,2.97
2023-02-06T23:49:01.348Z,2.20
2023-02-06T23:51:28.183Z,1.88
2023-02-06T23:53:54.957Z,2.15
2023-02-06T23:56:27.187Z,2.03
2023-02-06T23:58:55.119Z,2.20
